sensor_id;sensor_type;location;lat;lon;timestamp;P1;durP1;ratioP1;P2;durP2;ratioP2
12110;SDS011;6119;52.372;8.990;2022-12-13T00:00:33;20.07;;;10.40;;
12110;SDS011;6119;52.372;8.990;2022-12-13T00:03:20;18.37;;;10.30;;
12110;SDS011;6119;52.372;8.990;2022-12-13T00:06:08;22.60;;;11.30;;
12110;SDS011;6119;52.372;8.990;2022-12-13T00:08:57;21.73;;;10.47;;
12110;SDS011;6119;52.372;8.990;2022-12-13T00:11:44;17.83;;;9.23;;
12110;SDS011;6119;52.372;8.990;2022-12-13T00:14:32;17.17;;;9.03;;
12110;SDS011;6119;52.372;8.990;2022-12-13T00:17:19;19.80;;;10.63;;
12110;SDS011;6119;52.372;8.990;2022-12-13T00:20:06;22.50;;;11.10;;
12110;SDS011;6119;52.372;8.990;2022-12-13T00:22:55;23.73;;;11.93;;
12110;SDS011;6119;52.372;8.990;2022-12-13T00:25:41;22.57;;;12.97;;
12110;SDS011;6119;52.372;8.990;2022-12-13T00:28:28;22.60;;;11.60;;
12110;SDS011;6119;52.372;8.990;2022-12-13T00:31:15;19.83;;;11.73;;
12110;SDS011;6119;52.372;8.990;2022-12-13T00:34:22;20.27;;;11.33;;
12110;SDS011;6119;52.372;8.990;2022-12-13T00:37:09;19.37;;;11.37;;
12110;SDS011;6119;52.372;8.990;2022-12-13T00:39:57;21.60;;;10.97;;
12110;SDS011;6119;52.372;8.990;2022-12-13T00:42:44;21.33;;;11.73;;
12110;SDS011;6119;52.372;8.990;2022-12-13T00:45:31;24.57;;;11.77;;
12110;SDS011;6119;52.372;8.990;2022-12-13T00:48:18;21.17;;;10.43;;
12110;SDS011;6119;52.372;8.990;2022-12-13T00:51:05;21.50;;;10.53;;
12110;SDS011;6119;52.372;8.990;2022-12-13T00:53:52;16.80;;;9.70;;
12110;SDS011;6119;52.372;8.990;2022-12-13T00:56:40;18.03;;;9.27;;
12110;SDS011;6119;52.372;8.990;2022-12-13T00:59:27;18.73;;;9.73;;
12110;SDS011;6119;52.372;8.990;2022-12-13T01:02:14;16.83;;;8.60;;
12110;SDS011;6119;52.372;8.990;2022-12-13T01:05:00;15.63;;;7.93;;
12110;SDS011;6119;52.372;8.990;2022-12-13T01:07:47;15.80;;;8.70;;
12110;SDS011;6119;52.372;8.990;2022-12-13T01:10:33;17.67;;;9.40;;
12110;SDS011;6119;52.372;8.990;2022-12-13T01:13:21;14.57;;;8.67;;
12110;SDS011;6119;52.372;8.990;2022-12-13T01:16:09;16.10;;;8.63;;
12110;SDS011;6119;52.372;8.990;2022-12-13T01:18:57;14.43;;;8.07;;
12110;SDS011;6119;52.372;8.990;2022-12-13T01:21:43;13.27;;;8.00;;
12110;SDS011;6119;52.372;8.990;2022-12-13T01:24:30;16.53;;;7.87;;
12110;SDS011;6119;52.372;8.990;2022-12-13T01:27:17;18.43;;;7.93;;
12110;SDS011;6119;52.372;8.990;2022-12-13T01:30:05;15.17;;;9.00;;
12110;SDS011;6119;52.372;8.990;2022-12-13T01:32:53;15.70;;;9.20;;
12110;SDS011;6119;52.372;8.990;2022-12-13T01:35:39;12.37;;;7.33;;
12110;SDS011;6119;52.372;8.990;2022-12-13T01:38:26;14.57;;;8.13;;
12110;SDS011;6119;52.372;8.990;2022-12-13T01:41:13;13.33;;;7.93;;
12110;SDS011;6119;52.372;8.990;2022-12-13T01:44:02;15.87;;;8.30;;
12110;SDS011;6119;52.372;8.990;2022-12-13T01:46:51;13.97;;;8.00;;
12110;SDS011;6119;52.372;8.990;2022-12-13T01:49:39;13.07;;;7.37;;
12110;SDS011;6119;52.372;8.990;2022-12-13T01:52:26;15.97;;;7.60;;
12110;SDS011;6119;52.372;8.990;2022-12-13T01:55:15;12.77;;;7.40;;
12110;SDS011;6119;52.372;8.990;2022-12-13T01:58:03;16.73;;;7.90;;
12110;SDS011;6119;52.372;8.990;2022-12-13T02:00:51;14.63;;;7.97;;
12110;SDS011;6119;52.372;8.990;2022-12-13T02:03:39;10.37;;;7.27;;
12110;SDS011;6119;52.372;8.990;2022-12-13T02:06:28;12.13;;;6.63;;
12110;SDS011;6119;52.372;8.990;2022-12-13T02:09:19;12.37;;;7.30;;
12110;SDS011;6119;52.372;8.990;2022-12-13T02:12:06;17.17;;;7.40;;
12110;SDS011;6119;52.372;8.990;2022-12-13T02:14:53;14.70;;;7.33;;
12110;SDS011;6119;52.372;8.990;2022-12-13T02:17:51;12.87;;;6.90;;
12110;SDS011;6119;52.372;8.990;2022-12-13T02:20:52;11.40;;;6.77;;
12110;SDS011;6119;52.372;8.990;2022-12-13T02:23:58;11.17;;;7.10;;
12110;SDS011;6119;52.372;8.990;2022-12-13T02:27:08;14.83;;;6.73;;
12110;SDS011;6119;52.372;8.990;2022-12-13T02:33:21;14.17;;;7.37;;
12110;SDS011;6119;52.372;8.990;2022-12-13T02:36:22;15.07;;;7.40;;
12110;SDS011;6119;52.372;8.990;2022-12-13T02:39:21;14.50;;;6.93;;
12110;SDS011;6119;52.372;8.990;2022-12-13T02:42:15;15.90;;;7.10;;
12110;SDS011;6119;52.372;8.990;2022-12-13T02:45:08;15.43;;;7.53;;
12110;SDS011;6119;52.372;8.990;2022-12-13T02:48:06;12.50;;;7.13;;
12110;SDS011;6119;52.372;8.990;2022-12-13T02:50:55;11.37;;;7.00;;
12110;SDS011;6119;52.372;8.990;2022-12-13T02:53:44;13.57;;;7.17;;
12110;SDS011;6119;52.372;8.990;2022-12-13T02:56:31;15.03;;;7.27;;
12110;SDS011;6119;52.372;8.990;2022-12-13T02:59:18;10.70;;;6.53;;
12110;SDS011;6119;52.372;8.990;2022-12-13T03:02:07;18.00;;;7.13;;
12110;SDS011;6119;52.372;8.990;2022-12-13T03:05:19;16.03;;;7.63;;
12110;SDS011;6119;52.372;8.990;2022-12-13T03:08:31;13.13;;;7.87;;
12110;SDS011;6119;52.372;8.990;2022-12-13T03:11:24;13.27;;;7.27;;
12110;SDS011;6119;52.372;8.990;2022-12-13T03:14:33;13.77;;;6.30;;
12110;SDS011;6119;52.372;8.990;2022-12-13T03:17:24;15.13;;;7.10;;
12110;SDS011;6119;52.372;8.990;2022-12-13T03:20:14;14.47;;;7.53;;
12110;SDS011;6119;52.372;8.990;2022-12-13T03:23:08;12.10;;;6.80;;
12110;SDS011;6119;52.372;8.990;2022-12-13T03:25:57;14.37;;;7.07;;
12110;SDS011;6119;52.372;8.990;2022-12-13T03:28:48;13.73;;;6.43;;
12110;SDS011;6119;52.372;8.990;2022-12-13T03:31:35;13.67;;;7.50;;
12110;SDS011;6119;52.372;8.990;2022-12-13T03:34:21;12.40;;;6.80;;
12110;SDS011;6119;52.372;8.990;2022-12-13T03:37:08;12.27;;;6.73;;
12110;SDS011;6119;52.372;8.990;2022-12-13T03:39:56;14.00;;;7.00;;
12110;SDS011;6119;52.372;8.990;2022-12-13T03:42:42;12.87;;;6.63;;
12110;SDS011;6119;52.372;8.990;2022-12-13T03:45:29;15.47;;;7.50;;
12110;SDS011;6119;52.372;8.990;2022-12-13T03:48:15;15.07;;;6.63;;
12110;SDS011;6119;52.372;8.990;2022-12-13T03:51:07;15.03;;;6.97;;
12110;SDS011;6119;52.372;8.990;2022-12-13T03:53:53;14.67;;;7.07;;
12110;SDS011;6119;52.372;8.990;2022-12-13T03:56:41;13.30;;;8.07;;
12110;SDS011;6119;52.372;8.990;2022-12-13T03:59:28;13.63;;;7.40;;
12110;SDS011;6119;52.372;8.990;2022-12-13T04:02:14;13.27;;;7.60;;
12110;SDS011;6119;52.372;8.990;2022-12-13T04:05:15;14.43;;;7.57;;
12110;SDS011;6119;52.372;8.990;2022-12-13T04:08:02;11.03;;;6.50;;
12110;SDS011;6119;52.372;8.990;2022-12-13T04:11:06;15.37;;;7.83;;
12110;SDS011;6119;52.372;8.990;2022-12-13T04:14:08;10.73;;;6.27;;
12110;SDS011;6119;52.372;8.990;2022-12-13T04:16:55;14.67;;;8.10;;
12110;SDS011;6119;52.372;8.990;2022-12-13T04:19:42;15.40;;;7.00;;
12110;SDS011;6119;52.372;8.990;2022-12-13T04:22:28;12.40;;;6.77;;
12110;SDS011;6119;52.372;8.990;2022-12-13T04:25:15;12.23;;;6.57;;
12110;SDS011;6119;52.372;8.990;2022-12-13T04:28:03;12.60;;;6.97;;
12110;SDS011;6119;52.372;8.990;2022-12-13T04:30:51;14.03;;;7.20;;
12110;SDS011;6119;52.372;8.990;2022-12-13T04:33:38;9.70;;;5.83;;
12110;SDS011;6119;52.372;8.990;2022-12-13T04:36:24;14.87;;;7.30;;
12110;SDS011;6119;52.372;8.990;2022-12-13T04:39:16;12.27;;;6.77;;
12110;SDS011;6119;52.372;8.990;2022-12-13T04:42:06;11.37;;;6.20;;
12110;SDS011;6119;52.372;8.990;2022-12-13T04:44:53;11.03;;;6.67;;
12110;SDS011;6119;52.372;8.990;2022-12-13T04:47:41;14.23;;;7.10;;
12110;SDS011;6119;52.372;8.990;2022-12-13T04:50:28;14.00;;;7.67;;
12110;SDS011;6119;52.372;8.990;2022-12-13T04:53:14;10.97;;;6.67;;
12110;SDS011;6119;52.372;8.990;2022-12-13T04:56:01;14.07;;;7.63;;
12110;SDS011;6119;52.372;8.990;2022-12-13T04:58:48;14.37;;;6.73;;
12110;SDS011;6119;52.372;8.990;2022-12-13T05:01:34;12.10;;;6.47;;
12110;SDS011;6119;52.372;8.990;2022-12-13T05:04:22;14.70;;;7.20;;
12110;SDS011;6119;52.372;8.990;2022-12-13T05:07:16;17.57;;;8.67;;
12110;SDS011;6119;52.372;8.990;2022-12-13T05:10:03;10.60;;;6.80;;
12110;SDS011;6119;52.372;8.990;2022-12-13T05:12:50;14.07;;;7.50;;
12110;SDS011;6119;52.372;8.990;2022-12-13T05:15:36;14.80;;;6.80;;
12110;SDS011;6119;52.372;8.990;2022-12-13T05:18:23;15.93;;;7.43;;
12110;SDS011;6119;52.372;8.990;2022-12-13T05:21:11;10.27;;;6.43;;
12110;SDS011;6119;52.372;8.990;2022-12-13T05:23:58;11.90;;;6.47;;
12110;SDS011;6119;52.372;8.990;2022-12-13T05:26:44;14.87;;;7.17;;
12110;SDS011;6119;52.372;8.990;2022-12-13T05:29:31;14.50;;;7.13;;
12110;SDS011;6119;52.372;8.990;2022-12-13T05:32:17;12.20;;;7.03;;
12110;SDS011;6119;52.372;8.990;2022-12-13T05:35:05;12.73;;;6.90;;
12110;SDS011;6119;52.372;8.990;2022-12-13T05:37:53;11.43;;;6.70;;
12110;SDS011;6119;52.372;8.990;2022-12-13T05:40:40;10.97;;;6.83;;
12110;SDS011;6119;52.372;8.990;2022-12-13T05:43:27;15.27;;;7.30;;
12110;SDS011;6119;52.372;8.990;2022-12-13T05:49:25;12.27;;;7.50;;
12110;SDS011;6119;52.372;8.990;2022-12-13T05:52:14;11.97;;;6.87;;
12110;SDS011;6119;52.372;8.990;2022-12-13T05:55:04;15.37;;;7.57;;
12110;SDS011;6119;52.372;8.990;2022-12-13T05:57:51;14.33;;;7.13;;
12110;SDS011;6119;52.372;8.990;2022-12-13T06:00:46;9.90;;;6.43;;
12110;SDS011;6119;52.372;8.990;2022-12-13T06:03:33;15.83;;;7.47;;
12110;SDS011;6119;52.372;8.990;2022-12-13T06:06:21;13.63;;;7.30;;
12110;SDS011;6119;52.372;8.990;2022-12-13T06:09:07;13.47;;;7.27;;
12110;SDS011;6119;52.372;8.990;2022-12-13T06:11:55;16.67;;;7.53;;
12110;SDS011;6119;52.372;8.990;2022-12-13T06:14:45;14.20;;;6.83;;
12110;SDS011;6119;52.372;8.990;2022-12-13T06:17:32;15.20;;;7.77;;
12110;SDS011;6119;52.372;8.990;2022-12-13T06:20:19;14.80;;;7.50;;
12110;SDS011;6119;52.372;8.990;2022-12-13T06:23:09;13.07;;;7.20;;
12110;SDS011;6119;52.372;8.990;2022-12-13T06:25:55;9.70;;;6.13;;
12110;SDS011;6119;52.372;8.990;2022-12-13T06:28:44;15.77;;;7.83;;
12110;SDS011;6119;52.372;8.990;2022-12-13T06:31:30;14.93;;;7.47;;
12110;SDS011;6119;52.372;8.990;2022-12-13T06:34:17;12.93;;;7.17;;
12110;SDS011;6119;52.372;8.990;2022-12-13T06:37:04;18.53;;;8.80;;
12110;SDS011;6119;52.372;8.990;2022-12-13T06:39:52;14.27;;;8.23;;
12110;SDS011;6119;52.372;8.990;2022-12-13T06:42:39;13.73;;;7.57;;
12110;SDS011;6119;52.372;8.990;2022-12-13T06:45:26;15.07;;;7.10;;
12110;SDS011;6119;52.372;8.990;2022-12-13T06:48:13;12.90;;;7.20;;
12110;SDS011;6119;52.372;8.990;2022-12-13T06:51:04;11.97;;;7.00;;
12110;SDS011;6119;52.372;8.990;2022-12-13T06:53:51;16.53;;;7.77;;
12110;SDS011;6119;52.372;8.990;2022-12-13T06:56:38;15.90;;;8.10;;
12110;SDS011;6119;52.372;8.990;2022-12-13T06:59:25;16.90;;;8.60;;
12110;SDS011;6119;52.372;8.990;2022-12-13T07:02:13;16.87;;;7.83;;
12110;SDS011;6119;52.372;8.990;2022-12-13T07:05:09;16.03;;;7.90;;
12110;SDS011;6119;52.372;8.990;2022-12-13T07:07:56;13.53;;;6.87;;
12110;SDS011;6119;52.372;8.990;2022-12-13T07:10:43;15.03;;;7.93;;
12110;SDS011;6119;52.372;8.990;2022-12-13T07:13:30;15.10;;;8.77;;
12110;SDS011;6119;52.372;8.990;2022-12-13T07:16:17;17.10;;;8.73;;
12110;SDS011;6119;52.372;8.990;2022-12-13T07:19:06;13.87;;;8.20;;
12110;SDS011;6119;52.372;8.990;2022-12-13T07:22:08;12.07;;;7.77;;
12110;SDS011;6119;52.372;8.990;2022-12-13T07:24:55;14.90;;;7.47;;
12110;SDS011;6119;52.372;8.990;2022-12-13T07:27:41;12.60;;;7.90;;
12110;SDS011;6119;52.372;8.990;2022-12-13T07:30:28;17.53;;;8.57;;
12110;SDS011;6119;52.372;8.990;2022-12-13T07:33:16;15.17;;;8.07;;
12110;SDS011;6119;52.372;8.990;2022-12-13T07:36:11;13.53;;;8.17;;
12110;SDS011;6119;52.372;8.990;2022-12-13T07:38:58;13.97;;;8.00;;
12110;SDS011;6119;52.372;8.990;2022-12-13T07:41:45;13.47;;;7.20;;
12110;SDS011;6119;52.372;8.990;2022-12-13T07:44:32;16.63;;;9.27;;
12110;SDS011;6119;52.372;8.990;2022-12-13T07:47:18;13.60;;;8.63;;
12110;SDS011;6119;52.372;8.990;2022-12-13T07:50:07;18.63;;;8.20;;
12110;SDS011;6119;52.372;8.990;2022-12-13T07:53:10;18.73;;;7.60;;
12110;SDS011;6119;52.372;8.990;2022-12-13T07:55:59;14.93;;;8.13;;
12110;SDS011;6119;52.372;8.990;2022-12-13T07:58:46;15.73;;;8.07;;
12110;SDS011;6119;52.372;8.990;2022-12-13T08:01:33;20.43;;;8.60;;
12110;SDS011;6119;52.372;8.990;2022-12-13T08:04:19;14.83;;;8.10;;
12110;SDS011;6119;52.372;8.990;2022-12-13T08:07:06;17.27;;;8.23;;
12110;SDS011;6119;52.372;8.990;2022-12-13T08:09:55;19.33;;;8.37;;
12110;SDS011;6119;52.372;8.990;2022-12-13T08:12:41;15.40;;;8.33;;
12110;SDS011;6119;52.372;8.990;2022-12-13T08:15:28;18.43;;;9.40;;
12110;SDS011;6119;52.372;8.990;2022-12-13T08:18:15;15.73;;;9.13;;
12110;SDS011;6119;52.372;8.990;2022-12-13T08:21:02;16.77;;;9.50;;
12110;SDS011;6119;52.372;8.990;2022-12-13T08:24:10;15.83;;;7.97;;
12110;SDS011;6119;52.372;8.990;2022-12-13T08:27:01;15.10;;;8.33;;
12110;SDS011;6119;52.372;8.990;2022-12-13T08:29:48;18.70;;;9.27;;
12110;SDS011;6119;52.372;8.990;2022-12-13T08:32:34;16.93;;;9.23;;
12110;SDS011;6119;52.372;8.990;2022-12-13T08:35:21;18.30;;;9.30;;
12110;SDS011;6119;52.372;8.990;2022-12-13T08:38:09;17.27;;;9.13;;
12110;SDS011;6119;52.372;8.990;2022-12-13T08:40:57;16.20;;;9.10;;
12110;SDS011;6119;52.372;8.990;2022-12-13T08:43:45;18.83;;;9.60;;
12110;SDS011;6119;52.372;8.990;2022-12-13T08:46:31;15.77;;;9.20;;
12110;SDS011;6119;52.372;8.990;2022-12-13T08:49:18;14.30;;;8.37;;
12110;SDS011;6119;52.372;8.990;2022-12-13T08:52:05;18.30;;;9.33;;
12110;SDS011;6119;52.372;8.990;2022-12-13T08:54:52;16.13;;;8.93;;
12110;SDS011;6119;52.372;8.990;2022-12-13T08:57:39;18.87;;;10.00;;
12110;SDS011;6119;52.372;8.990;2022-12-13T09:00:29;17.70;;;9.37;;
12110;SDS011;6119;52.372;8.990;2022-12-13T09:03:20;19.47;;;8.53;;
12110;SDS011;6119;52.372;8.990;2022-12-13T09:06:07;17.53;;;9.00;;
12110;SDS011;6119;52.372;8.990;2022-12-13T09:08:55;19.73;;;10.30;;
12110;SDS011;6119;52.372;8.990;2022-12-13T09:11:47;17.40;;;9.43;;
12110;SDS011;6119;52.372;8.990;2022-12-13T09:14:43;18.77;;;9.07;;
12110;SDS011;6119;52.372;8.990;2022-12-13T09:17:32;19.03;;;9.30;;
12110;SDS011;6119;52.372;8.990;2022-12-13T09:20:21;23.07;;;9.60;;
12110;SDS011;6119;52.372;8.990;2022-12-13T09:23:13;18.37;;;9.00;;
12110;SDS011;6119;52.372;8.990;2022-12-13T09:26:08;19.23;;;9.00;;
12110;SDS011;6119;52.372;8.990;2022-12-13T09:28:59;16.73;;;8.80;;
12110;SDS011;6119;52.372;8.990;2022-12-13T09:31:55;19.77;;;9.93;;
12110;SDS011;6119;52.372;8.990;2022-12-13T09:34:43;20.33;;;10.07;;
12110;SDS011;6119;52.372;8.990;2022-12-13T09:37:30;20.83;;;9.93;;
12110;SDS011;6119;52.372;8.990;2022-12-13T09:40:17;18.93;;;9.27;;
12110;SDS011;6119;52.372;8.990;2022-12-13T09:43:11;23.80;;;11.97;;
12110;SDS011;6119;52.372;8.990;2022-12-13T09:46:10;23.63;;;11.37;;
12110;SDS011;6119;52.372;8.990;2022-12-13T09:49:10;24.50;;;10.00;;
12110;SDS011;6119;52.372;8.990;2022-12-13T09:52:11;20.73;;;10.33;;
12110;SDS011;6119;52.372;8.990;2022-12-13T09:55:14;23.47;;;10.33;;
12110;SDS011;6119;52.372;8.990;2022-12-13T09:58:05;25.37;;;10.47;;
12110;SDS011;6119;52.372;8.990;2022-12-13T10:00:54;22.00;;;10.73;;
12110;SDS011;6119;52.372;8.990;2022-12-13T10:03:43;23.07;;;10.60;;
12110;SDS011;6119;52.372;8.990;2022-12-13T10:06:34;22.10;;;10.47;;
12110;SDS011;6119;52.372;8.990;2022-12-13T10:09:23;20.50;;;10.17;;
12110;SDS011;6119;52.372;8.990;2022-12-13T10:12:10;19.97;;;9.67;;
12110;SDS011;6119;52.372;8.990;2022-12-13T10:15:00;18.90;;;10.50;;
12110;SDS011;6119;52.372;8.990;2022-12-13T10:17:48;18.50;;;10.07;;
12110;SDS011;6119;52.372;8.990;2022-12-13T10:20:39;22.87;;;11.67;;
12110;SDS011;6119;52.372;8.990;2022-12-13T10:23:27;17.57;;;10.43;;
12110;SDS011;6119;52.372;8.990;2022-12-13T10:26:35;21.87;;;10.50;;
12110;SDS011;6119;52.372;8.990;2022-12-13T10:29:24;22.77;;;11.10;;
12110;SDS011;6119;52.372;8.990;2022-12-13T10:32:11;18.93;;;9.77;;
12110;SDS011;6119;52.372;8.990;2022-12-13T10:34:58;21.90;;;10.63;;
12110;SDS011;6119;52.372;8.990;2022-12-13T10:37:45;21.97;;;11.33;;
12110;SDS011;6119;52.372;8.990;2022-12-13T10:40:32;20.33;;;11.23;;
12110;SDS011;6119;52.372;8.990;2022-12-13T10:43:22;20.10;;;10.37;;
12110;SDS011;6119;52.372;8.990;2022-12-13T10:46:16;18.03;;;9.60;;
12110;SDS011;6119;52.372;8.990;2022-12-13T10:49:13;20.37;;;11.00;;
12110;SDS011;6119;52.372;8.990;2022-12-13T10:52:01;17.20;;;10.23;;
12110;SDS011;6119;52.372;8.990;2022-12-13T10:54:49;17.23;;;10.20;;
12110;SDS011;6119;52.372;8.990;2022-12-13T10:57:48;25.77;;;11.60;;
12110;SDS011;6119;52.372;8.990;2022-12-13T11:00:38;22.63;;;10.80;;
12110;SDS011;6119;52.372;8.990;2022-12-13T11:03:28;22.43;;;11.27;;
12110;SDS011;6119;52.372;8.990;2022-12-13T11:06:16;22.83;;;11.27;;
12110;SDS011;6119;52.372;8.990;2022-12-13T11:09:11;22.03;;;10.87;;
12110;SDS011;6119;52.372;8.990;2022-12-13T11:12:10;26.73;;;12.20;;
12110;SDS011;6119;52.372;8.990;2022-12-13T11:15:00;22.97;;;11.70;;
12110;SDS011;6119;52.372;8.990;2022-12-13T11:17:52;26.67;;;12.60;;
12110;SDS011;6119;52.372;8.990;2022-12-13T11:20:45;22.00;;;11.77;;
12110;SDS011;6119;52.372;8.990;2022-12-13T11:23:38;21.83;;;11.97;;
12110;SDS011;6119;52.372;8.990;2022-12-13T11:26:30;22.60;;;11.97;;
12110;SDS011;6119;52.372;8.990;2022-12-13T11:29:26;20.37;;;11.03;;
12110;SDS011;6119;52.372;8.990;2022-12-13T11:32:30;25.20;;;11.93;;
12110;SDS011;6119;52.372;8.990;2022-12-13T11:35:29;18.03;;;11.00;;
12110;SDS011;6119;52.372;8.990;2022-12-13T11:38:35;26.37;;;13.17;;
12110;SDS011;6119;52.372;8.990;2022-12-13T11:41:42;26.13;;;13.00;;
12110;SDS011;6119;52.372;8.990;2022-12-13T11:44:36;32.27;;;14.30;;
12110;SDS011;6119;52.372;8.990;2022-12-13T11:47:33;26.80;;;13.07;;
12110;SDS011;6119;52.372;8.990;2022-12-13T11:50:24;22.57;;;11.37;;
12110;SDS011;6119;52.372;8.990;2022-12-13T11:53:19;21.93;;;11.17;;
12110;SDS011;6119;52.372;8.990;2022-12-13T11:56:13;22.73;;;13.07;;
12110;SDS011;6119;52.372;8.990;2022-12-13T11:59:07;29.13;;;13.10;;
12110;SDS011;6119;52.372;8.990;2022-12-13T12:02:11;27.70;;;13.07;;
12110;SDS011;6119;52.372;8.990;2022-12-13T12:05:04;46.27;;;21.70;;
12110;SDS011;6119;52.372;8.990;2022-12-13T12:08:03;22.83;;;12.03;;
12110;SDS011;6119;52.372;8.990;2022-12-13T12:11:18;22.73;;;11.53;;
12110;SDS011;6119;52.372;8.990;2022-12-13T12:14:12;18.10;;;10.57;;
12110;SDS011;6119;52.372;8.990;2022-12-13T12:17:04;24.00;;;12.67;;
12110;SDS011;6119;52.372;8.990;2022-12-13T12:19:51;23.27;;;11.10;;
12110;SDS011;6119;52.372;8.990;2022-12-13T12:22:42;22.63;;;11.13;;
12110;SDS011;6119;52.372;8.990;2022-12-13T12:25:38;20.73;;;10.07;;
12110;SDS011;6119;52.372;8.990;2022-12-13T12:28:33;20.27;;;11.20;;
12110;SDS011;6119;52.372;8.990;2022-12-13T12:31:33;25.60;;;13.10;;
12110;SDS011;6119;52.372;8.990;2022-12-13T12:34:37;21.20;;;10.87;;
12110;SDS011;6119;52.372;8.990;2022-12-13T12:37:35;25.33;;;11.33;;
12110;SDS011;6119;52.372;8.990;2022-12-13T12:44:03;27.17;;;12.93;;
12110;SDS011;6119;52.372;8.990;2022-12-13T12:47:00;20.33;;;11.00;;
12110;SDS011;6119;52.372;8.990;2022-12-13T12:50:17;18.73;;;9.97;;
12110;SDS011;6119;52.372;8.990;2022-12-13T12:53:16;26.20;;;12.33;;
12110;SDS011;6119;52.372;8.990;2022-12-13T12:56:18;24.33;;;12.50;;
12110;SDS011;6119;52.372;8.990;2022-12-13T12:59:21;23.50;;;12.03;;
12110;SDS011;6119;52.372;8.990;2022-12-13T13:02:17;22.33;;;11.53;;
12110;SDS011;6119;52.372;8.990;2022-12-13T13:05:11;21.63;;;10.67;;
12110;SDS011;6119;52.372;8.990;2022-12-13T13:08:03;20.30;;;10.07;;
12110;SDS011;6119;52.372;8.990;2022-12-13T13:10:55;21.30;;;11.80;;
12110;SDS011;6119;52.372;8.990;2022-12-13T13:13:51;21.50;;;11.00;;
12110;SDS011;6119;52.372;8.990;2022-12-13T13:16:46;22.73;;;11.07;;
12110;SDS011;6119;52.372;8.990;2022-12-13T13:19:39;21.47;;;12.57;;
12110;SDS011;6119;52.372;8.990;2022-12-13T13:22:30;21.07;;;11.53;;
12110;SDS011;6119;52.372;8.990;2022-12-13T13:25:28;24.50;;;12.60;;
12110;SDS011;6119;52.372;8.990;2022-12-13T13:28:17;19.77;;;10.97;;
12110;SDS011;6119;52.372;8.990;2022-12-13T13:31:07;21.77;;;10.80;;
12110;SDS011;6119;52.372;8.990;2022-12-13T13:33:54;21.43;;;11.80;;
12110;SDS011;6119;52.372;8.990;2022-12-13T13:36:45;19.20;;;10.30;;
12110;SDS011;6119;52.372;8.990;2022-12-13T13:45:58;25.03;;;12.57;;
12110;SDS011;6119;52.372;8.990;2022-12-13T13:48:57;23.40;;;12.83;;
12110;SDS011;6119;52.372;8.990;2022-12-13T13:51:53;21.00;;;11.37;;
12110;SDS011;6119;52.372;8.990;2022-12-13T13:55:16;20.80;;;10.90;;
12110;SDS011;6119;52.372;8.990;2022-12-13T13:58:37;26.20;;;16.48;;
12110;SDS011;6119;52.372;8.990;2022-12-13T14:05:20;20.77;;;11.17;;
12110;SDS011;6119;52.372;8.990;2022-12-13T14:08:35;22.80;;;11.67;;
12110;SDS011;6119;52.372;8.990;2022-12-13T14:11:47;20.57;;;10.70;;
12110;SDS011;6119;52.372;8.990;2022-12-13T14:21:56;20.43;;;11.03;;
12110;SDS011;6119;52.372;8.990;2022-12-13T14:24:57;18.57;;;10.97;;
12110;SDS011;6119;52.372;8.990;2022-12-13T14:28:10;19.97;;;10.73;;
12110;SDS011;6119;52.372;8.990;2022-12-13T14:31:03;22.80;;;11.80;;
12110;SDS011;6119;52.372;8.990;2022-12-13T14:34:06;36.83;;;17.13;;
12110;SDS011;6119;52.372;8.990;2022-12-13T14:36:53;20.27;;;10.97;;
12110;SDS011;6119;52.372;8.990;2022-12-13T14:39:43;27.10;;;14.02;;
12110;SDS011;6119;52.372;8.990;2022-12-13T14:42:31;21.80;;;11.93;;
12110;SDS011;6119;52.372;8.990;2022-12-13T14:45:20;20.57;;;10.77;;
12110;SDS011;6119;52.372;8.990;2022-12-13T14:48:11;20.03;;;11.33;;
12110;SDS011;6119;52.372;8.990;2022-12-13T14:51:19;23.03;;;10.83;;
12110;SDS011;6119;52.372;8.990;2022-12-13T14:54:17;21.43;;;10.73;;
12110;SDS011;6119;52.372;8.990;2022-12-13T14:57:13;19.97;;;9.60;;
12110;SDS011;6119;52.372;8.990;2022-12-13T15:03:10;19.50;;;10.30;;
12110;SDS011;6119;52.372;8.990;2022-12-13T15:06:06;21.30;;;10.50;;
12110;SDS011;6119;52.372;8.990;2022-12-13T15:08:53;17.23;;;10.57;;
12110;SDS011;6119;52.372;8.990;2022-12-13T15:11:39;21.40;;;10.37;;
12110;SDS011;6119;52.372;8.990;2022-12-13T15:14:28;30.53;;;17.40;;
12110;SDS011;6119;52.372;8.990;2022-12-13T15:17:24;24.17;;;14.13;;
12110;SDS011;6119;52.372;8.990;2022-12-13T15:20:20;23.27;;;12.67;;
12110;SDS011;6119;52.372;8.990;2022-12-13T15:23:13;19.17;;;10.50;;
12110;SDS011;6119;52.372;8.990;2022-12-13T15:26:07;22.13;;;11.07;;
12110;SDS011;6119;52.372;8.990;2022-12-13T15:29:13;23.13;;;11.77;;
12110;SDS011;6119;52.372;8.990;2022-12-13T15:32:05;19.63;;;10.73;;
12110;SDS011;6119;52.372;8.990;2022-12-13T15:35:12;20.67;;;11.27;;
12110;SDS011;6119;52.372;8.990;2022-12-13T15:38:00;20.00;;;9.83;;
12110;SDS011;6119;52.372;8.990;2022-12-13T15:40:47;18.10;;;10.43;;
12110;SDS011;6119;52.372;8.990;2022-12-13T15:43:34;24.53;;;10.93;;
12110;SDS011;6119;52.372;8.990;2022-12-13T15:46:29;20.37;;;11.13;;
12110;SDS011;6119;52.372;8.990;2022-12-13T15:49:29;21.20;;;11.77;;
12110;SDS011;6119;52.372;8.990;2022-12-13T15:52:26;25.07;;;12.50;;
12110;SDS011;6119;52.372;8.990;2022-12-13T15:55:23;25.07;;;11.43;;
12110;SDS011;6119;52.372;8.990;2022-12-13T15:58:21;23.63;;;11.73;;
12110;SDS011;6119;52.372;8.990;2022-12-13T16:01:22;22.63;;;11.80;;
12110;SDS011;6119;52.372;8.990;2022-12-13T16:04:11;19.57;;;11.13;;
12110;SDS011;6119;52.372;8.990;2022-12-13T16:07:15;20.23;;;11.63;;
12110;SDS011;6119;52.372;8.990;2022-12-13T16:10:14;24.63;;;11.97;;
12110;SDS011;6119;52.372;8.990;2022-12-13T16:13:04;25.93;;;12.00;;
12110;SDS011;6119;52.372;8.990;2022-12-13T16:15:53;24.07;;;12.53;;
12110;SDS011;6119;52.372;8.990;2022-12-13T16:18:53;26.87;;;13.67;;
12110;SDS011;6119;52.372;8.990;2022-12-13T16:21:42;26.03;;;13.03;;
12110;SDS011;6119;52.372;8.990;2022-12-13T16:24:29;25.10;;;12.53;;
12110;SDS011;6119;52.372;8.990;2022-12-13T16:27:16;23.27;;;11.63;;
12110;SDS011;6119;52.372;8.990;2022-12-13T16:30:07;23.30;;;11.53;;
12110;SDS011;6119;52.372;8.990;2022-12-13T16:32:57;23.30;;;11.97;;
12110;SDS011;6119;52.372;8.990;2022-12-13T16:36:03;27.57;;;11.43;;
12110;SDS011;6119;52.372;8.990;2022-12-13T16:38:51;23.00;;;10.97;;
12110;SDS011;6119;52.372;8.990;2022-12-13T16:41:38;21.13;;;10.77;;
12110;SDS011;6119;52.372;8.990;2022-12-13T16:44:29;22.00;;;11.30;;
12110;SDS011;6119;52.372;8.990;2022-12-13T16:47:19;22.37;;;11.63;;
12110;SDS011;6119;52.372;8.990;2022-12-13T16:50:23;22.43;;;10.70;;
12110;SDS011;6119;52.372;8.990;2022-12-13T16:53:09;22.67;;;11.10;;
12110;SDS011;6119;52.372;8.990;2022-12-13T16:56:02;19.00;;;10.03;;
12110;SDS011;6119;52.372;8.990;2022-12-13T16:58:49;19.50;;;10.30;;
12110;SDS011;6119;52.372;8.990;2022-12-13T17:01:35;24.50;;;11.83;;
12110;SDS011;6119;52.372;8.990;2022-12-13T17:04:23;21.70;;;11.60;;
12110;SDS011;6119;52.372;8.990;2022-12-13T17:07:11;22.80;;;11.20;;
12110;SDS011;6119;52.372;8.990;2022-12-13T17:09:58;21.73;;;10.97;;
12110;SDS011;6119;52.372;8.990;2022-12-13T17:12:46;22.57;;;11.30;;
12110;SDS011;6119;52.372;8.990;2022-12-13T17:15:32;24.90;;;11.37;;
12110;SDS011;6119;52.372;8.990;2022-12-13T17:18:19;21.97;;;10.77;;
12110;SDS011;6119;52.372;8.990;2022-12-13T17:21:06;23.77;;;12.07;;
12110;SDS011;6119;52.372;8.990;2022-12-13T17:23:54;25.10;;;12.90;;
12110;SDS011;6119;52.372;8.990;2022-12-13T17:26:41;24.57;;;12.37;;
12110;SDS011;6119;52.372;8.990;2022-12-13T17:29:40;31.07;;;13.10;;
12110;SDS011;6119;52.372;8.990;2022-12-13T17:32:27;23.50;;;12.43;;
12110;SDS011;6119;52.372;8.990;2022-12-13T17:35:14;22.00;;;11.63;;